Time;durP1;ratioP1;P1;durP2;ratioP2;P2;SDS_P1;SDS_P2;PMS_P1;PMS_P2;Temp;Humidity;BMP_temperature;BMP_pressure;BME280_temperature;BME280_humidity;BME280_pressure;Samples;Min_cycle;Max_cycle;Signal;HPM_P1;HPM_P2
2023/12/01 00:00:33;;;;;;;69.72;37.00;;;;;2.70;96882.00;;;;4900738;29;20052;-64
2023/12/01 00:02:59;;;;;;;49.35;28.00;;;;;2.80;96870.00;;;;4898549;29;20044;-64
2023/12/01 00:05:26;;;;;;;43.55;24.90;;;;;2.70;96869.00;;;;4898846;29;20672;-64
2023/12/01 00:07:53;;;;;;;40.40;21.90;;;;;2.70;96873.00;;;;4899600;29;20443;-64
2023/12/01 00:10:19;;;;;;;54.20;31.30;;;;;2.80;96877.00;;;;4898963;29;20040;-65
2023/12/01 00:12:46;;;;;;;47.45;26.92;;;;;2.90;96879.00;;;;4899626;29;20051;-64
2023/12/01 00:15:12;;;;;;;46.28;26.08;;;;;2.90;96885.00;;;;4897582;29;20147;-64
2023/12/01 00:17:39;;;;;;;41.53;22.98;;;;;2.90;96880.00;;;;4900712;29;20085;-64
2023/12/01 00:20:06;;;;;;;43.35;24.25;;;;;2.90;96887.00;;;;4899689;29;20056;-64
2023/12/01 00:22:33;;;;;;;36.72;21.50;;;;;2.90;96881.00;;;;4898066;29;20053;-64
2023/12/01 00:25:00;;;;;;;42.33;22.17;;;;;2.80;96889.00;;;;4898852;29;20049;-63
2023/12/01 00:27:26;;;;;;;39.88;22.20;;;;;2.70;96867.00;;;;4897953;29;20104;-61
2023/12/01 00:29:53;;;;;;;38.78;21.17;;;;;2.70;96876.00;;;;4899585;29;20052;-62
2023/12/01 00:32:19;;;;;;;40.30;21.60;;;;;2.80;96878.00;;;;4898202;29;20143;-62
2023/12/01 00:34:46;;;;;;;37.42;21.60;;;;;2.90;96881.00;;;;4898207;29;20544;-62
2023/12/01 00:37:16;;;;;;;42.75;22.70;;;;;2.90;96870.00;;;;4899167;29;20490;-62
2023/12/01 00:39:43;;;;;;;41.78;22.73;;;;;2.90;96871.00;;;;4899184;29;20143;-62
2023/12/01 00:42:10;;;;;;;40.40;21.50;;;;;2.90;96885.00;;;;4882500;29;20053;-62
2023/12/01 00:44:36;;;;;;;40.17;21.25;;;;;3.00;96868.00;;;;4897241;29;20139;-63
2023/12/01 00:47:03;;;;;;;38.53;21.42;;;;;2.90;96869.00;;;;4898837;29;20041;-62
2023/12/01 00:49:31;;;;;;;42.70;23.70;;;;;3.00;96873.00;;;;4897942;29;20049;-61
2023/12/01 00:51:58;;;;;;;43.17;22.67;;;;;3.00;96873.00;;;;4897536;29;20056;-62
2023/12/01 00:54:24;;;;;;;41.45;22.92;;;;;2.90;96870.00;;;;4896438;29;20052;-62
2023/12/01 00:56:51;;;;;;;40.38;22.52;;;;;2.90;96876.00;;;;4898813;29;20124;-63
2023/12/01 00:59:17;;;;;;;41.35;21.80;;;;;2.90;96883.00;;;;4897396;29;20052;-64
2023/12/01 01:01:44;;;;;;;42.72;23.08;;;;;3.10;96884.00;;;;4897459;29;20083;-65
2023/12/01 01:04:10;;;;;;;42.92;22.40;;;;;3.20;96894.00;;;;4896995;29;20131;-62
2023/12/01 01:06:38;;;;;;;38.67;21.35;;;;;3.20;96902.00;;;;4898390;29;20245;-62
2023/12/01 01:09:05;;;;;;;42.58;24.00;;;;;3.20;96893.00;;;;4898456;29;20167;-63
2023/12/01 01:11:32;;;;;;;39.60;21.15;;;;;3.20;96886.00;;;;4898012;29;20052;-62
2023/12/01 01:13:59;;;;;;;43.60;24.17;;;;;3.10;96859.00;;;;4896816;29;20143;-62
2023/12/01 01:16:26;;;;;;;42.97;23.27;;;;;3.00;96868.00;;;;4897161;29;20434;-62
2023/12/01 01:18:52;;;;;;;45.03;22.92;;;;;3.00;96865.00;;;;4897196;29;20056;-62
2023/12/01 01:21:19;;;;;;;38.65;21.42;;;;;3.00;96872.00;;;;4897088;29;20053;-63
2023/12/01 01:23:46;;;;;;;42.40;21.63;;;;;3.00;96885.00;;;;4896579;29;20068;-62
2023/12/01 01:26:14;;;;;;;42.55;22.45;;;;;3.10;96897.00;;;;4898100;29;20104;-62
2023/12/01 01:28:40;;;;;;;40.10;21.58;;;;;3.20;96905.00;;;;4898037;29;20049;-62
2023/12/01 01:31:07;;;;;;;38.67;21.52;;;;;3.30;96909.00;;;;4896866;29;20059;-61
2023/12/01 01:33:36;;;;;;;37.85;20.70;;;;;3.40;96915.00;;;;4896277;29;20059;-62
2023/12/01 01:36:03;;;;;;;39.05;21.52;;;;;3.30;96923.00;;;;4896842;29;20086;-60
2023/12/01 01:38:29;;;;;;;40.95;22.30;;;;;3.50;96913.00;;;;4897979;29;20131;-61
2023/12/01 01:40:56;;;;;;;41.08;22.15;;;;;3.40;96919.00;;;;4898051;29;20048;-62
2023/12/01 01:43:23;;;;;;;45.33;22.38;;;;;3.50;96940.00;;;;4897572;29;20621;-66
2023/12/01 01:46:05;;;;;;;38.22;21.38;;;;;3.60;96946.00;;;;4897990;29;20131;-62
2023/12/01 01:48:33;;;;;;;33.17;19.42;;;;;3.70;96940.00;;;;4896456;29;20115;-62
2023/12/01 01:51:01;;;;;;;35.45;20.73;;;;;3.70;96947.00;;;;4898361;29;20430;-62
2023/12/01 01:53:29;;;;;;;36.58;21.02;;;;;3.60;96953.00;;;;4881288;29;20071;-62
2023/12/01 01:55:57;;;;;;;34.33;20.05;;;;;3.70;96943.00;;;;4896968;29;20044;-61
2023/12/01 01:58:27;;;;;;;33.55;19.65;;;;;3.70;96941.00;;;;4897414;29;20474;-61
2023/12/01 02:00:54;;;;;;;36.08;21.40;;;;;3.60;96916.00;;;;4898016;29;20518;-62
2023/12/01 02:03:21;;;;;;;39.70;21.30;;;;;3.40;96923.00;;;;4897643;29;20502;-63
2023/12/01 02:05:48;;;;;;;36.50;20.73;;;;;3.50;96919.00;;;;4896085;29;20574;-62
2023/12/01 02:08:28;;;;;;;32.35;19.05;;;;;3.50;96915.00;;;;4898173;29;20072;-63
2023/12/01 02:10:57;;;;;;;37.55;21.63;;;;;3.40;96926.00;;;;4881098;29;20254;-61
2023/12/01 02:13:24;;;;;;;40.38;21.23;;;;;3.50;96940.00;;;;4897209;29;20390;-62
2023/12/01 02:15:52;;;;;;;38.40;20.30;;;;;3.60;96934.00;;;;4897349;29;20430;-61
2023/12/01 02:18:23;;;;;;;36.70;20.50;;;;;3.70;96934.00;;;;4897418;29;20052;-64
2023/12/01 02:20:54;;;;;;;35.50;20.20;;;;;3.70;96948.00;;;;4897382;29;20053;-62
2023/12/01 02:23:21;;;;;;;37.60;20.92;;;;;3.70;96931.00;;;;4880620;29;20048;-61
2023/12/01 02:25:49;;;;;;;32.53;19.73;;;;;3.70;96936.00;;;;4895901;29;20059;-61
2023/12/01 02:28:16;;;;;;;39.25;21.00;;;;;3.60;96938.00;;;;4896034;29;20147;-63
2023/12/01 02:30:53;;;;;;;33.92;20.52;;;;;3.60;96939.00;;;;4897320;29;20048;-62
2023/12/01 02:33:21;;;;;;;34.95;19.92;;;;;3.70;96947.00;;;;4895805;29;20562;-62
2023/12/01 02:35:50;;;;;;;41.20;21.85;;;;;3.70;96951.00;;;;4895799;29;20097;-62
2023/12/01 02:38:18;;;;;;;35.05;19.30;;;;;3.80;96950.00;;;;4897002;29;20127;-62
2023/12/01 02:40:51;;;;;;;37.50;21.10;;;;;3.90;96954.00;;;;4897116;29;20112;-62
2023/12/01 02:43:19;;;;;;;36.88;20.20;;;;;3.80;96963.00;;;;4895941;29;20494;-62
2023/12/01 02:45:46;;;;;;;35.95;20.48;;;;;3.90;96964.00;;;;4896374;29;20055;-62
2023/12/01 02:48:15;;;;;;;37.53;20.38;;;;;3.90;96959.00;;;;4895648;29;20045;-62
2023/12/01 02:50:42;;;;;;;36.00;21.27;;;;;4.00;96951.00;;;;4895730;29;20502;-62
2023/12/01 02:53:08;;;;;;;33.63;19.25;;;;;3.90;96953.00;;;;4896853;29;20058;-62
2023/12/01 02:55:35;;;;;;;31.98;19.77;;;;;3.80;96942.00;;;;4895030;29;20573;-62
2023/12/01 02:58:02;;;;;;;35.78;20.60;;;;;3.70;96943.00;;;;4896883;29;20498;-62
2023/12/01 03:00:29;;;;;;;36.83;20.10;;;;;3.60;96929.00;;;;4896878;29;20546;-60
2023/12/01 03:02:55;;;;;;;41.30;22.15;;;;;3.50;96933.00;;;;4897040;29;20052;-62
2023/12/01 03:05:22;;;;;;;39.60;21.75;;;;;3.30;96922.00;;;;4895043;29;20129;-62
2023/12/01 03:07:50;;;;;;;40.72;21.45;;;;;3.30;96927.00;;;;4896602;29;20056;-62
2023/12/01 03:10:17;;;;;;;38.90;21.92;;;;;3.40;96921.00;;;;4895718;29;20056;-62
2023/12/01 03:12:44;;;;;;;34.35;19.33;;;;;3.30;96927.00;;;;4895750;29;20147;-62
2023/12/01 03:15:17;;;;;;;38.05;20.48;;;;;3.20;96928.00;;;;4895006;29;20516;-63
2023/12/01 03:17:44;;;;;;;40.10;20.50;;;;;3.30;96923.00;;;;4897841;29;20045;-62
2023/12/01 03:20:11;;;;;;;34.75;21.20;;;;;3.40;96924.00;;;;4899272;29;20048;-62
2023/12/01 03:22:39;;;;;;;35.88;20.92;;;;;3.50;96929.00;;;;4900414;29;20126;-62
2023/12/01 03:25:09;;;;;;;34.22;18.50;;;;;3.50;96927.00;;;;4898786;29;20462;-62
2023/12/01 03:27:42;;;;;;;35.42;20.27;;;;;3.50;96934.00;;;;4899114;29;20083;-62
2023/12/01 03:30:19;;;;;;;35.95;19.42;;;;;3.50;96929.00;;;;4900331;29;20052;-62
2023/12/01 03:32:48;;;;;;;32.67;18.02;;;;;3.50;96929.00;;;;4900304;29;20052;-62
2023/12/01 03:35:20;;;;;;;35.72;19.85;;;;;3.50;96936.00;;;;4898424;29;20052;-62
2023/12/01 03:37:48;;;;;;;33.97;19.95;;;;;3.60;96944.00;;;;4898943;29;20049;-61
2023/12/01 03:40:14;;;;;;;33.08;18.23;;;;;3.60;96932.00;;;;4900167;29;20041;-61
2023/12/01 03:42:43;;;;;;;33.70;19.15;;;;;3.60;96935.00;;;;4898943;29;20552;-63
2023/12/01 03:45:12;;;;;;;31.83;19.08;;;;;3.50;96921.00;;;;4898144;29;20104;-63
2023/12/01 03:47:46;;;;;;;33.15;18.90;;;;;3.50;96914.00;;;;4898823;29;20052;-64
2023/12/01 03:50:14;;;;;;;34.60;18.60;;;;;3.60;96924.00;;;;4898808;29;20491;-64
2023/12/01 03:52:42;;;;;;;35.10;19.08;;;;;3.70;96948.00;;;;4900230;29;20427;-65
2023/12/01 03:55:10;;;;;;;38.85;19.70;;;;;3.70;96949.00;;;;4899427;29;20048;-65
2023/12/01 03:57:38;;;;;;;44.63;21.60;;;;;3.60;96938.00;;;;4898797;29;20391;-65
2023/12/01 04:00:13;;;;;;;38.33;20.55;;;;;3.60;96931.00;;;;4899832;29;20052;-64
2023/12/01 04:02:44;;;;;;;40.55;19.77;;;;;3.50;96926.00;;;;4899869;29;20052;-64
2023/12/01 04:05:18;;;;;;;37.33;20.25;;;;;3.50;96926.00;;;;4899297;29;20112;-64
2023/12/01 04:07:50;;;;;;;42.20;21.63;;;;;3.40;96921.00;;;;4899520;29;20521;-65
2023/12/01 04:10:20;;;;;;;41.35;20.98;;;;;3.50;96913.00;;;;4899791;29;20049;-65
2023/12/01 04:12:46;;;;;;;42.28;21.30;;;;;3.60;96908.00;;;;4899669;29;20502;-64
2023/12/01 04:15:19;;;;;;;44.22;20.85;;;;;3.60;96916.00;;;;4897726;29;20056;-63
2023/12/01 04:17:48;;;;;;;51.75;25.40;;;;;3.50;96911.00;;;;4899482;29;20071;-64
2023/12/01 04:20:20;;;;;;;56.47;26.85;;;;;3.50;96916.00;;;;4899522;29;20052;-64
2023/12/01 04:22:49;;;;;;;54.08;25.30;;;;;3.50;96915.00;;;;4899483;29;20068;-65
2023/12/01 04:25:16;;;;;;;55.55;24.23;;;;;3.50;96913.00;;;;4882043;29;20143;-64
2023/12/01 04:27:46;;;;;;;55.70;25.80;;;;;3.50;96913.00;;;;4899216;29;20402;-64
2023/12/01 04:30:17;;;;;;;52.20;24.05;;;;;3.40;96916.00;;;;4898423;29;20045;-64
2023/12/01 04:32:54;;;;;;;52.78;24.95;;;;;3.30;96912.00;;;;4899350;29;20520;-65
2023/12/01 04:35:25;;;;;;;55.83;25.15;;;;;3.30;96915.00;;;;4897528;29;20055;-64
2023/12/01 04:37:52;;;;;;;53.40;24.00;;;;;3.20;96915.00;;;;4899189;29;20076;-64
2023/12/01 04:40:19;;;;;;;56.63;25.00;;;;;3.10;96913.00;;;;4899143;29;20076;-64
2023/12/01 04:42:47;;;;;;;49.28;23.65;;;;;3.00;96925.00;;;;4897781;29;20054;-64
2023/12/01 04:45:17;;;;;;;57.80;22.13;;;;;3.00;96918.00;;;;4898252;29;20055;-64
2023/12/01 04:47:45;;;;;;;56.28;23.08;;;;;2.90;96918.00;;;;4898986;29;20135;-64
2023/12/01 04:50:14;;;;;;;50.97;21.80;;;;;2.90;96913.00;;;;4897718;29;20053;-65
2023/12/01 04:52:45;;;;;;;57.55;22.65;;;;;2.90;96910.00;;;;4898815;29;20044;-64
2023/12/01 04:55:15;;;;;;;56.33;25.13;;;;;2.90;96921.00;;;;4898233;29;20044;-64
2023/12/01 04:57:42;;;;;;;56.55;21.83;;;;;2.90;96926.00;;;;4897752;29;20048;-64
2023/12/01 05:00:21;;;;;;;51.17;22.33;;;;;2.80;96927.00;;;;4898923;29;20490;-64
2023/12/01 05:03:08;;;;;;;49.58;22.15;;;;;2.80;96927.00;;;;4898789;29;20048;-63
2023/12/01 05:05:36;;;;;;;56.10;22.48;;;;;2.70;96932.00;;;;4896542;29;20052;-64
2023/12/01 05:08:05;;;;;;;51.65;22.00;;;;;2.70;96928.00;;;;4897230;29;20048;-65
2023/12/01 05:10:34;;;;;;;52.30;23.35;;;;;2.70;96936.00;;;;4897611;29;20434;-63
2023/12/01 05:13:05;;;;;;;46.90;21.38;;;;;2.80;96942.00;;;;4898664;29;20486;-65
2023/12/01 05:15:35;;;;;;;48.47;20.75;;;;;2.80;96962.00;;;;4896800;29;20124;-64
2023/12/01 05:18:07;;;;;;;53.15;22.20;;;;;2.90;96960.00;;;;4898987;29;20049;-64
2023/12/01 05:20:34;;;;;;;54.78;21.52;;;;;2.80;96953.00;;;;4898493;29;20128;-64
2023/12/01 05:23:08;;;;;;;46.25;20.40;;;;;2.80;96969.00;;;;4898355;29;20076;-64
2023/12/01 05:25:37;;;;;;;45.05;20.25;;;;;2.70;96957.00;;;;4897783;29;20511;-64
2023/12/01 05:28:06;;;;;;;51.20;21.27;;;;;2.80;96958.00;;;;4898099;29;20049;-64
2023/12/01 05:30:34;;;;;;;43.88;20.08;;;;;2.60;96961.00;;;;4897005;29;20413;-64
2023/12/01 05:33:02;;;;;;;45.90;19.02;;;;;2.60;96961.00;;;;4896948;29;20491;-65
2023/12/01 05:35:29;;;;;;;49.67;19.95;;;;;2.70;96970.00;;;;4897498;29;20055;-64
2023/12/01 05:37:57;;;;;;;49.72;20.02;;;;;2.70;96961.00;;;;4896746;29;20055;-64
2023/12/01 05:40:26;;;;;;;39.17;19.27;;;;;2.60;96968.00;;;;4897731;29;20502;-64
2023/12/01 05:42:54;;;;;;;40.13;17.58;;;;;2.70;96973.00;;;;4896849;29;20506;-64
2023/12/01 05:45:23;;;;;;;40.53;18.48;;;;;2.60;96975.00;;;;4895951;29;20049;-64
2023/12/01 05:47:54;;;;;;;38.55;17.45;;;;;2.50;96979.00;;;;4896702;29;20486;-64
2023/12/01 05:50:23;;;;;;;41.70;18.83;;;;;2.50;97004.00;;;;4896502;29;20052;-64
2023/12/01 05:52:52;;;;;;;42.30;19.08;;;;;2.50;97004.00;;;;4896475;29;20055;-64
2023/12/01 05:55:23;;;;;;;36.10;18.98;;;;;2.60;97012.00;;;;4897115;29;20040;-64
2023/12/01 05:57:53;;;;;;;42.15;18.77;;;;;2.60;97014.00;;;;4897818;29;20500;-65
2023/12/01 06:00:22;;;;;;;36.92;16.65;;;;;2.50;97012.00;;;;4896411;29;20049;-64
2023/12/01 06:02:52;;;;;;;38.53;16.88;;;;;2.50;97009.00;;;;4896342;29;20068;-64
2023/12/01 06:05:20;;;;;;;34.78;17.30;;;;;2.50;97008.00;;;;4895828;29;20521;-62
2023/12/01 06:07:54;;;;;;;34.03;16.90;;;;;2.40;97013.00;;;;4897250;29;20271;-62
2023/12/01 06:10:22;;;;;;;36.58;17.40;;;;;2.40;97012.00;;;;4897534;29;20489;-62
2023/12/01 06:12:49;;;;;;;36.05;16.27;;;;;2.30;97004.00;;;;4896273;29;20151;-62
2023/12/01 06:15:17;;;;;;;37.28;17.15;;;;;2.30;97000.00;;;;4897123;29;20052;-62
2023/12/01 06:17:49;;;;;;;33.63;16.67;;;;;2.30;97000.00;;;;4897410;29;20494;-62
2023/12/01 06:20:18;;;;;;;33.25;16.85;;;;;2.40;97010.00;;;;4897407;29;20048;-62
2023/12/01 06:22:48;;;;;;;32.92;16.95;;;;;2.40;97018.00;;;;4896169;29;20036;-62
2023/12/01 06:25:16;;;;;;;31.98;17.40;;;;;2.40;97007.00;;;;4896774;29;20399;-61
2023/12/01 06:27:43;;;;;;;35.63;16.85;;;;;2.30;97015.00;;;;4897291;29;20475;-62
2023/12/01 06:30:12;;;;;;;36.55;18.13;;;;;2.30;97015.00;;;;4897155;29;20207;-61
2023/12/01 06:32:43;;;;;;;37.22;18.95;;;;;2.30;97017.00;;;;4896022;29;20052;-62
2023/12/01 06:35:12;;;;;;;38.28;19.65;;;;;2.30;97038.00;;;;4896491;29;20237;-61
2023/12/01 06:37:39;;;;;;;35.28;17.77;;;;;2.40;97034.00;;;;4897336;29;20108;-62
2023/12/01 06:40:15;;;;;;;37.95;18.20;;;;;2.40;97042.00;;;;4897057;29;20562;-61
2023/12/01 06:42:43;;;;;;;32.80;16.83;;;;;2.30;97039.00;;;;4897305;29;20055;-60
2023/12/01 06:45:11;;;;;;;32.80;17.55;;;;;2.30;97046.00;;;;4896295;29;20104;-61
2023/12/01 06:47:40;;;;;;;35.50;17.17;;;;;2.30;97042.00;;;;4896923;29;20049;-61
2023/12/01 06:50:11;;;;;;;29.23;16.63;;;;;2.30;97048.00;;;;4896878;29;20044;-61
2023/12/01 06:52:38;;;;;;;32.55;17.52;;;;;2.30;97051.00;;;;4901587;29;20052;-61
2023/12/01 06:55:07;;;;;;;36.88;19.55;;;;;2.30;97043.00;;;;4903448;29;20123;-61
2023/12/01 06:57:38;;;;;;;31.40;16.55;;;;;2.30;97044.00;;;;4903669;29;20096;-61
2023/12/01 07:00:10;;;;;;;28.73;15.48;;;;;2.30;97060.00;;;;4903793;29;20066;-62
2023/12/01 07:02:37;;;;;;;25.65;13.93;;;;;2.30;97056.00;;;;4903879;29;20472;-60
2023/12/01 07:05:05;;;;;;;27.15;14.70;;;;;2.30;97058.00;;;;4902883;29;20080;-60
2023/12/01 07:07:32;;;;;;;21.67;13.48;;;;;2.30;97059.00;;;;4903160;29;20135;-61
2023/12/01 07:09:59;;;;;;;22.65;13.40;;;;;2.30;97052.00;;;;4903537;29;20049;-61
2023/12/01 07:12:26;;;;;;;26.17;14.30;;;;;2.30;97059.00;;;;4901933;29;20049;-61
2023/12/01 07:14:52;;;;;;;23.90;12.93;;;;;2.40;97059.00;;;;4902504;29;20123;-61
2023/12/01 07:17:20;;;;;;;23.30;14.07;;;;;2.30;97051.00;;;;4903127;29;20079;-61
2023/12/01 07:19:47;;;;;;;26.95;14.98;;;;;2.30;97052.00;;;;4903115;29;20508;-61
2023/12/01 07:22:14;;;;;;;31.80;14.65;;;;;2.30;97046.00;;;;4903036;29;20050;-61
2023/12/01 07:24:42;;;;;;;22.35;13.48;;;;;2.40;97049.00;;;;4902506;29;20391;-62
2023/12/01 07:27:09;;;;;;;25.80;14.05;;;;;2.40;97041.00;;;;4901575;29;20056;-61
2023/12/01 07:29:39;;;;;;;27.45;16.30;;;;;2.40;97048.00;;;;4902988;29;20051;-64
2023/12/01 07:32:07;;;;;;;25.65;13.68;;;;;2.40;97041.00;;;;4902966;29;20053;-61
2023/12/01 07:34:33;;;;;;;27.35;13.88;;;;;2.40;97041.00;;;;4902387;29;20060;-61
2023/12/01 07:37:00;;;;;;;25.15;13.52;;;;;2.40;97046.00;;;;4901486;29;20157;-62
2023/12/01 07:39:27;;;;;;;32.70;15.70;;;;;2.40;97056.00;;;;4902698;29;20510;-61
2023/12/01 07:41:53;;;;;;;32.05;17.63;;;;;2.50;97075.00;;;;4902869;29;20079;-61
2023/12/01 07:44:20;;;;;;;35.42;18.20;;;;;2.50;97076.00;;;;4902294;29;20060;-62
2023/12/01 07:46:47;;;;;;;35.10;17.27;;;;;2.50;97071.00;;;;4902739;29;20087;-62
2023/12/01 07:49:13;;;;;;;30.15;15.90;;;;;2.40;97080.00;;;;4902766;29;20045;-60
2023/12/01 07:51:40;;;;;;;31.92;16.13;;;;;2.40;97072.00;;;;4902671;29;20052;-62
2023/12/01 07:54:07;;;;;;;25.73;14.05;;;;;2.50;97064.00;;;;4902264;29;20049;-61
2023/12/01 07:56:33;;;;;;;22.38;12.95;;;;;2.40;97068.00;;;;4902613;29;20076;-60
2023/12/01 07:59:00;;;;;;;29.70;15.73;;;;;2.30;97064.00;;;;4902683;29;20553;-61
2023/12/01 08:01:27;;;;;;;29.70;15.90;;;;;2.40;97071.00;;;;4902715;29;20044;-63
2023/12/01 08:03:53;;;;;;;30.95;15.95;;;;;2.30;97091.00;;;;4900398;29;20131;-61
2023/12/01 08:06:20;;;;;;;28.10;16.17;;;;;2.30;97081.00;;;;4899529;29;20100;-62
2023/12/01 08:08:47;;;;;;;24.48;13.98;;;;;2.30;97071.00;;;;4899505;29;20143;-60
2023/12/01 08:11:16;;;;;;;31.35;17.08;;;;;2.30;97075.00;;;;4899540;29;20045;-62
2023/12/01 08:13:42;;;;;;;24.88;14.75;;;;;2.30;97077.00;;;;4898984;29;20084;-62
2023/12/01 08:16:09;;;;;;;27.95;15.43;;;;;2.40;97083.00;;;;4900933;29;20048;-62
2023/12/01 08:18:36;;;;;;;23.98;14.13;;;;;2.40;97066.00;;;;4901152;29;20119;-61
2023/12/01 08:21:03;;;;;;;25.73;14.93;;;;;2.40;97081.00;;;;4899388;29;20463;-61
2023/12/01 08:23:31;;;;;;;21.95;13.35;;;;;2.50;97081.00;;;;4900001;29;20051;-63
2023/12/01 08:25:57;;;;;;;21.60;12.10;;;;;2.50;97085.00;;;;4900445;29;20049;-62
2023/12/01 08:28:24;;;;;;;19.63;12.10;;;;;2.50;97086.00;;;;4900922;29;20491;-62
2023/12/01 08:30:51;;;;;;;18.65;11.48;;;;;2.50;97091.00;;;;4901246;29;20088;-61
2023/12/01 08:33:17;;;;;;;21.13;12.68;;;;;2.50;97072.00;;;;4899184;29;20072;-61
2023/12/01 08:35:44;;;;;;;15.52;10.88;;;;;2.60;97069.00;;;;4899916;29;20585;-62
2023/12/01 08:38:11;;;;;;;21.52;11.25;;;;;2.60;97074.00;;;;4900247;29;20044;-62
2023/12/01 08:40:38;;;;;;;16.08;10.55;;;;;2.60;97080.00;;;;4899545;29;20072;-61
2023/12/01 08:43:09;;;;;;;14.63;9.10;;;;;2.70;97094.00;;;;4899340;29;20131;-62
2023/12/01 08:45:36;;;;;;;12.85;9.40;;;;;2.60;97107.00;;;;4898383;29;20055;-62
2023/12/01 08:48:03;;;;;;;15.25;9.25;;;;;2.70;97106.00;;;;4898826;29;20080;-62
2023/12/01 08:50:30;;;;;;;13.70;8.85;;;;;2.60;97110.00;;;;4899083;29;20100;-63
2023/12/01 08:52:56;;;;;;;14.55;9.73;;;;;2.60;97105.00;;;;4899048;29;20048;-62
2023/12/01 08:55:23;;;;;;;15.50;9.68;;;;;2.70;97105.00;;;;4898281;29;20072;-62
2023/12/01 08:57:50;;;;;;;15.25;9.40;;;;;2.70;97098.00;;;;4899117;29;20044;-61
2023/12/01 09:00:20;;;;;;;16.02;8.90;;;;;2.70;97089.00;;;;4898940;29;20124;-63
2023/12/01 09:02:52;;;;;;;17.00;8.75;;;;;2.60;97100.00;;;;4897425;29;20056;-63
2023/12/01 09:05:19;;;;;;;18.60;9.93;;;;;2.70;97099.00;;;;4898214;29;20477;-62
2023/12/01 09:07:49;;;;;;;17.35;9.90;;;;;2.60;97094.00;;;;4881749;29;20493;-62
2023/12/01 09:10:16;;;;;;;16.58;9.88;;;;;2.60;97096.00;;;;4898617;29;20045;-61
2023/12/01 09:12:43;;;;;;;19.15;9.77;;;;;2.60;97082.00;;;;4898614;29;20044;-62
2023/12/01 09:15:11;;;;;;;16.00;9.45;;;;;2.60;97083.00;;;;4897113;29;20074;-62
2023/12/01 09:17:38;;;;;;;18.25;10.05;;;;;2.60;97086.00;;;;4897322;29;20049;-62
2023/12/01 09:20:06;;;;;;;18.05;11.30;;;;;2.60;97080.00;;;;4897174;29;20060;-62
2023/12/01 09:22:33;;;;;;;20.27;11.20;;;;;2.60;97090.00;;;;4897272;29;20514;-63
2023/12/01 09:24:59;;;;;;;22.15;12.00;;;;;2.60;97091.00;;;;4897783;29;20044;-62
2023/12/01 09:27:28;;;;;;;18.30;11.15;;;;;2.70;97099.00;;;;4898371;29;20412;-61
2023/12/01 09:29:54;;;;;;;19.92;11.07;;;;;2.70;97092.00;;;;4896828;29;20056;-61
2023/12/01 09:32:21;;;;;;;21.25;11.57;;;;;2.70;97097.00;;;;4898254;29;20048;-62
2023/12/01 09:34:48;;;;;;;23.95;11.82;;;;;2.60;97096.00;;;;4896329;29;20044;-62
2023/12/01 09:37:14;;;;;;;19.48;11.30;;;;;2.60;97111.00;;;;4896930;29;20100;-62
2023/12/01 09:39:41;;;;;;;21.45;11.50;;;;;2.50;97102.00;;;;4898195;29;20387;-62
2023/12/01 09:42:11;;;;;;;22.95;11.90;;;;;2.50;97101.00;;;;4898037;29;20052;-62
2023/12/01 09:44:37;;;;;;;20.42;12.48;;;;;2.60;97106.00;;;;4896417;29;20056;-63
2023/12/01 09:47:09;;;;;;;20.70;11.57;;;;;2.60;97106.00;;;;4898094;29;20581;-62
2023/12/01 09:49:37;;;;;;;19.90;11.07;;;;;2.60;97125.00;;;;4896861;29;20119;-62
2023/12/01 09:52:05;;;;;;;17.50;10.48;;;;;2.60;97133.00;;;;4896734;29;20059;-62
2023/12/01 09:54:31;;;;;;;20.90;11.32;;;;;2.70;97126.00;;;;4897255;29;20086;-62
2023/12/01 09:57:03;;;;;;;19.60;11.20;;;;;2.60;97136.00;;;;4896848;29;20045;-62
2023/12/01 09:59:30;;;;;;;18.38;11.18;;;;;2.60;97129.00;;;;4898768;29;20036;-63
2023/12/01 10:01:57;;;;;;;20.42;11.07;;;;;2.50;97109.00;;;;4896704;29;20061;-62
2023/12/01 10:04:24;;;;;;;20.33;12.18;;;;;2.60;97126.00;;;;4897265;29;20391;-62
2023/12/01 10:06:50;;;;;;;22.83;13.13;;;;;2.60;97113.00;;;;4895931;29;20502;-63
2023/12/01 10:09:26;;;;;;;19.58;11.25;;;;;2.70;97112.00;;;;4897422;29;20045;-62
2023/12/01 10:12:09;;;;;;;19.92;11.70;;;;;2.70;97123.00;;;;4897521;29;20051;-63
2023/12/01 10:14:37;;;;;;;18.83;11.00;;;;;2.70;97116.00;;;;4897235;29;20045;-62
2023/12/01 10:17:05;;;;;;;20.80;12.02;;;;;2.70;97103.00;;;;4898199;29;20413;-62
2023/12/01 10:19:36;;;;;;;19.58;11.57;;;;;2.70;97102.00;;;;4896566;29;20151;-62
2023/12/01 10:22:05;;;;;;;20.38;10.65;;;;;2.60;97096.00;;;;4897465;29;20066;-62
2023/12/01 10:24:33;;;;;;;17.17;10.50;;;;;2.70;97096.00;;;;4896804;29;20500;-63
2023/12/01 10:27:04;;;;;;;16.30;11.23;;;;;2.60;97088.00;;;;4895129;29;20421;-62
2023/12/01 10:29:32;;;;;;;20.77;11.55;;;;;2.60;97103.00;;;;4897278;29;20171;-62
2023/12/01 10:32:06;;;;;;;17.42;10.95;;;;;2.70;97090.00;;;;4896122;29;20502;-62
2023/12/01 10:34:37;;;;;;;19.83;10.73;;;;;2.60;97104.00;;;;4896650;29;20060;-63
2023/12/01 10:37:03;;;;;;;18.63;10.70;;;;;2.60;97115.00;;;;4896020;29;20100;-63
2023/12/01 10:39:30;;;;;;;18.90;10.65;;;;;2.70;97111.00;;;;4897561;29;20053;-62
2023/12/01 10:41:58;;;;;;;17.92;11.52;;;;;2.80;97103.00;;;;4897462;29;20123;-62
2023/12/01 10:44:31;;;;;;;17.20;10.15;;;;;2.80;97096.00;;;;4896952;29;20062;-63
2023/12/01 10:46:59;;;;;;;16.55;10.90;;;;;2.80;97087.00;;;;4897576;29;20040;-62
2023/12/01 10:49:26;;;;;;;14.82;9.93;;;;;2.70;97079.00;;;;4897383;29;20045;-63
2023/12/01 10:51:55;;;;;;;16.30;10.60;;;;;2.80;97094.00;;;;4897349;29;20124;-61
2023/12/01 10:54:24;;;;;;;15.75;9.27;;;;;2.80;97103.00;;;;4896704;29;20044;-62
2023/12/01 10:57:02;;;;;;;14.73;9.60;;;;;2.70;97096.00;;;;4896988;29;20048;-61
2023/12/01 10:59:32;;;;;;;14.63;9.77;;;;;2.60;97083.00;;;;4897307;29;20060;-62
2023/12/01 11:02:00;;;;;;;16.98;11.13;;;;;2.60;97075.00;;;;4895763;29;20155;-62
2023/12/01 11:04:30;;;;;;;14.23;9.55;;;;;2.60;97077.00;;;;4896582;29;20541;-61
2023/12/01 11:07:13;;;;;;;18.85;9.95;;;;;2.70;97085.00;;;;4897090;29;20049;-62
2023/12/01 11:09:58;;;;;;;15.05;9.02;;;;;2.70;97087.00;;;;4896735;29;20057;-62
2023/12/01 11:12:28;;;;;;;11.43;7.72;;;;;2.60;97087.00;;;;4896945;29;20051;-62
2023/12/01 11:14:59;;;;;;;13.63;8.60;;;;;2.50;97082.00;;;;4895025;29;20064;-62
2023/12/01 11:17:27;;;;;;;15.85;8.80;;;;;2.50;97052.00;;;;4896970;29;20060;-61
2023/12/01 11:19:53;;;;;;;12.57;8.02;;;;;2.50;97063.00;;;;4896903;29;20040;-62
2023/12/01 11:22:26;;;;;;;12.38;8.48;;;;;2.60;97066.00;;;;4911208;29;20514;-62
2023/12/01 11:24:54;;;;;;;11.57;7.75;;;;;2.50;97063.00;;;;4896413;29;20044;-62
2023/12/01 11:27:21;;;;;;;11.73;7.85;;;;;2.50;97071.00;;;;4895645;29;20494;-63
2023/12/01 11:30:17;;;;;;;14.48;8.73;;;;;2.50;97069.00;;;;4896717;29;20051;-62
2023/12/01 11:32:44;;;;;;;11.30;8.48;;;;;2.50;97064.00;;;;4900108;29;20057;-62
2023/12/01 11:35:13;;;;;;;12.77;8.60;;;;;2.30;97071.00;;;;4896097;29;20044;-62
2023/12/01 11:37:59;;;;;;;11.35;8.48;;;;;2.40;97062.00;;;;4895913;29;20056;-62
2023/12/01 11:40:27;;;;;;;12.75;8.45;;;;;2.40;97054.00;;;;4899271;29;20048;-61
2023/12/01 11:42:55;;;;;;;12.63;8.82;;;;;2.40;97064.00;;;;4900044;29;20509;-63
2023/12/01 11:45:39;;;;;;;13.05;9.50;;;;;2.40;97079.00;;;;4899870;29;20053;-61
2023/12/01 11:48:09;;;;;;;14.02;9.20;;;;;2.40;97080.00;;;;4914569;29;20048;-62
2023/12/01 11:50:38;;;;;;;11.77;8.32;;;;;2.50;97089.00;;;;4899967;29;20132;-62
2023/12/01 11:53:05;;;;;;;13.57;9.57;;;;;2.60;97099.00;;;;4900132;29;20665;-62
2023/12/01 11:55:32;;;;;;;15.10;9.45;;;;;2.60;97099.00;;;;4899341;29;20052;-62
2023/12/01 11:57:59;;;;;;;13.70;8.80;;;;;2.60;97107.00;;;;4900352;29;20048;-62
2023/12/01 12:00:26;;;;;;;11.65;8.52;;;;;2.60;97088.00;;;;4899012;29;20045;-62
2023/12/01 12:02:52;;;;;;;12.95;9.13;;;;;2.70;97099.00;;;;4899129;29;20558;-62
2023/12/01 12:05:20;;;;;;;14.55;8.95;;;;;2.50;97108.00;;;;4899630;29;20052;-62
2023/12/01 12:07:47;;;;;;;15.02;8.00;;;;;2.50;97104.00;;;;4898976;29;20052;-62
2023/12/01 12:10:15;;;;;;;12.75;8.82;;;;;2.50;97102.00;;;;4900033;29;20076;-62
2023/12/01 12:12:41;;;;;;;14.45;10.10;;;;;2.50;97104.00;;;;4898692;29;20085;-62
2023/12/01 12:15:13;;;;;;;15.68;9.60;;;;;2.50;97109.00;;;;4899625;29;20463;-63